createdAt,value
2023-03-16T00:00:21.757Z,1.96
2023-03-16T00:03:10.961Z,1.92
2023-03-16T00:05:38.875Z,1.90
2023-03-16T00:08:06.666Z,1.91
2023-03-16T00:10:34.738Z,1.94
2023-03-16T00:13:02.934Z,1.95
2023-03-16T00:15:30.708Z,1.99
2023-03-16T00:17:58.451Z,2.03
2023-03-16T00:20:27.880Z,2.05
2023-03-16T00:22:55.820Z,1.99
2023-03-16T00:25:24.375Z,1.93
2023-03-16T00:27:52.422Z,1.89
2023-03-16T00:30:20.170Z,1.88
2023-03-16T00:32:47.922Z,1.87
2023-03-16T00:35:18.317Z,1.87
2023-03-16T00:37:46.182Z,1.86
2023-03-16T00:40:15.288Z,1.82
2023-03-16T00:42:44.327Z,1.70
2023-03-16T00:45:12.294Z,1.60
2023-03-16T00:47:40.024Z,1.53
2023-03-16T00:50:08.352Z,1.47
2023-03-16T00:52:36.098Z,1.46
2023-03-16T00:55:04.809Z,1.40
2023-03-16T00:57:32.792Z,1.34
2023-03-16T01:00:02.284Z,1.28
2023-03-16T01:02:30.037Z,1.17
2023-03-16T01:04:58.469Z,1.06
2023-03-16T01:07:26.954Z,1.05
2023-03-16T01:09:54.745Z,1.10
2023-03-16T01:12:22.757Z,1.18
2023-03-16T01:14:50.518Z,1.19
2023-03-16T01:17:18.445Z,1.13
2023-03-16T01:19:46.488Z,1.06
2023-03-16T01:22:15.172Z,1.02
2023-03-16T01:24:47.014Z,1.02
2023-03-16T01:27:15.145Z,1.05
2023-03-16T01:29:43.830Z,1.09
2023-03-16T01:32:12.937Z,1.14
2023-03-16T01:34:41.569Z,1.16
2023-03-16T01:37:09.825Z,1.18
2023-03-16T01:39:43.782Z,1.21
2023-03-16T01:42:13.872Z,1.22
2023-03-16T01:45:05.922Z,1.25
2023-03-16T01:47:39.544Z,1.23
2023-03-16T01:50:13.980Z,1.20
2023-03-16T01:52:43.117Z,1.12
2023-03-16T01:55:13.475Z,1.09
2023-03-16T01:57:44.080Z,1.09
2023-03-16T02:00:22.085Z,1.12
2023-03-16T02:03:06.249Z,1.16
2023-03-16T02:06:01.537Z,1.17
2023-03-16T02:08:31.628Z,1.18
2023-03-16T02:11:00.123Z,1.18
2023-03-16T02:13:38.535Z,1.15
2023-03-16T02:16:07.825Z,1.02
2023-03-16T02:18:36.316Z,0.88
2023-03-16T02:21:04.326Z,0.83
2023-03-16T02:23:33.164Z,0.80
2023-03-16T02:26:22.986Z,0.82
2023-03-16T02:29:01.297Z,0.76
2023-03-16T02:31:30.599Z,0.76
2023-03-16T02:33:59.262Z,0.80
2023-03-16T02:36:27.847Z,0.87
2023-03-16T02:38:55.669Z,0.95
2023-03-16T02:41:23.905Z,1.01
2023-03-16T02:44:10.890Z,1.00
2023-03-16T02:46:43.475Z,0.98
2023-03-16T02:49:20.744Z,0.94
2023-03-16T02:51:48.586Z,0.91
2023-03-16T02:54:19.073Z,0.86
2023-03-16T02:56:46.924Z,0.81
2023-03-16T02:59:15.109Z,0.72
2023-03-16T03:01:42.937Z,0.65
2023-03-16T03:04:11.568Z,0.67
2023-03-16T03:06:39.783Z,0.61
2023-03-16T03:09:11.604Z,0.55
2023-03-16T03:11:41.384Z,0.49
2023-03-16T03:14:09.193Z,0.47
2023-03-16T03:16:37.906Z,0.52
2023-03-16T03:19:05.846Z,0.52
2023-03-16T03:21:36.801Z,0.47
2023-03-16T03:24:06.097Z,0.45
2023-03-16T03:26:35.306Z,0.49
2023-03-16T03:29:04.444Z,0.55
2023-03-16T03:31:34.138Z,0.62
2023-03-16T03:34:06.772Z,0.75
2023-03-16T03:36:36.248Z,0.78
2023-03-16T03:39:05.273Z,0.68
2023-03-16T03:41:33.945Z,0.64
2023-03-16T03:44:04.439Z,0.64
2023-03-16T03:46:32.684Z,0.63
2023-03-16T03:49:03.837Z,0.67
2023-03-16T03:51:33.868Z,0.68
2023-03-16T03:54:11.897Z,0.67
2023-03-16T03:56:56.067Z,0.60
2023-03-16T03:59:24.129Z,0.46
2023-03-16T04:02:05.541Z,0.37
2023-03-16T04:04:41.691Z,0.36
2023-03-16T04:07:11.354Z,0.35
2023-03-16T04:09:41.934Z,0.40
2023-03-16T04:12:12.272Z,0.48
2023-03-16T04:14:40.071Z,0.56
2023-03-16T04:17:09.334Z,0.63
2023-03-16T04:19:39.924Z,0.70
2023-03-16T04:22:13.012Z,0.78
2023-03-16T04:24:43.222Z,0.85
2023-03-16T04:27:12.512Z,0.85
2023-03-16T04:29:40.951Z,0.75
2023-03-16T04:32:09.844Z,0.66
2023-03-16T04:34:42.125Z,0.65
2023-03-16T04:37:10.498Z,0.64
2023-03-16T04:39:44.088Z,0.63
2023-03-16T04:42:12.562Z,0.61
2023-03-16T04:44:44.471Z,0.66
2023-03-16T04:47:15.632Z,0.72
2023-03-16T04:49:44.923Z,0.76
2023-03-16T04:52:13.627Z,0.83
2023-03-16T04:54:41.814Z,0.89
2023-03-16T04:57:10.685Z,0.92
2023-03-16T04:59:45.434Z,0.96
2023-03-16T05:02:20.973Z,1.02
2023-03-16T05:04:49.553Z,1.06
2023-03-16T05:07:18.273Z,1.07
2023-03-16T05:09:50.007Z,1.08
2023-03-16T05:12:18.305Z,1.10
2023-03-16T05:14:46.286Z,1.11
2023-03-16T05:17:22.241Z,1.09
2023-03-16T05:19:50.690Z,1.05
2023-03-16T05:22:19.265Z,1.04
2023-03-16T05:25:05.695Z,0.96
2023-03-16T05:27:35.197Z,0.89
2023-03-16T05:30:03.995Z,0.90
2023-03-16T05:32:32.689Z,0.89
2023-03-16T05:35:00.568Z,0.81
2023-03-16T05:37:29.023Z,0.74
2023-03-16T05:39:58.641Z,0.72
2023-03-16T05:42:29.568Z,0.79
2023-03-16T05:45:01.691Z,0.83
2023-03-16T05:47:37.893Z,0.95
2023-03-16T05:50:11.211Z,1.05
2023-03-16T05:52:40.574Z,1.18
2023-03-16T05:55:16.230Z,1.31
2023-03-16T05:57:45.378Z,1.36
2023-03-16T06:00:15.914Z,1.39
2023-03-16T06:02:49.411Z,1.42
2023-03-16T06:05:19.746Z,1.45
2023-03-16T06:07:50.194Z,1.51
2023-03-16T06:10:19.237Z,1.49
2023-03-16T06:12:47.289Z,1.49
2023-03-16T06:15:15.158Z,1.45
2023-03-16T06:17:43.180Z,1.49
2023-03-16T06:20:13.450Z,1.62
2023-03-16T06:22:42.900Z,1.69
2023-03-16T06:25:12.757Z,1.69
2023-03-16T06:27:42.616Z,1.77
2023-03-16T06:30:14.174Z,1.90
2023-03-16T06:32:42.538Z,2.01
2023-03-16T06:35:10.435Z,2.11
2023-03-16T06:37:41.557Z,2.16
2023-03-16T06:40:32.144Z,2.15
2023-03-16T06:43:00.588Z,2.14
2023-03-16T06:45:28.554Z,2.15
2023-03-16T06:47:56.905Z,2.08
2023-03-16T06:50:24.708Z,2.07
2023-03-16T06:52:52.738Z,2.09
2023-03-16T06:55:21.011Z,2.12
2023-03-16T06:57:50.046Z,2.15
2023-03-16T07:00:20.496Z,2.16
2023-03-16T07:02:48.448Z,2.17
2023-03-16T07:05:34.132Z,2.24
2023-03-16T07:08:19.772Z,2.23
2023-03-16T07:10:51.097Z,2.25
2023-03-16T07:13:21.244Z,2.30
2023-03-16T07:15:52.182Z,2.40
2023-03-16T07:18:26.134Z,2.42
2023-03-16T07:20:55.504Z,2.59
2023-03-16T07:23:25.801Z,2.63
2023-03-16T07:25:56.390Z,2.70
2023-03-16T07:28:25.623Z,2.88
2023-03-16T07:31:03.321Z,2.89
2023-03-16T07:33:36.309Z,2.85
2023-03-16T07:36:10.694Z,2.96
2023-03-16T07:38:42.690Z,3.08
2023-03-16T07:41:14.001Z,3.23
2023-03-16T07:43:46.979Z,3.33
2023-03-16T07:46:15.898Z,3.46
2023-03-16T07:48:45.428Z,3.55
2023-03-16T07:51:14.320Z,3.72
2023-03-16T07:53:43.879Z,3.79
2023-03-16T07:56:21.587Z,3.94
2023-03-16T07:58:56.230Z,4.08
2023-03-16T08:01:24.662Z,4.15
2023-03-16T08:03:53.993Z,4.20
2023-03-16T08:06:25.965Z,4.22
2023-03-16T08:08:55.226Z,4.41
2023-03-16T08:11:31.014Z,4.64
2023-03-16T08:14:04.280Z,4.81
2023-03-16T08:16:51.707Z,4.95
2023-03-16T08:19:20.542Z,5.00
2023-03-16T08:22:01.438Z,5.17
2023-03-16T08:24:37.532Z,5.33
2023-03-16T08:27:09.391Z,5.40
2023-03-16T08:29:40.761Z,5.57
2023-03-16T08:32:13.180Z,5.69
2023-03-16T08:34:45.921Z,5.90
2023-03-16T08:37:14.770Z,6.05
2023-03-16T08:39:46.733Z,6.10
2023-03-16T08:42:22.361Z,6.10
2023-03-16T08:44:56.045Z,6.18
2023-03-16T08:47:25.889Z,6.34
2023-03-16T08:49:57.398Z,6.21
2023-03-16T08:52:28.012Z,6.21
2023-03-16T08:55:03.367Z,6.24
2023-03-16T08:57:33.747Z,6.41
2023-03-16T14:02:43.925Z,16.56
2023-03-16T14:05:22.087Z,16.64
2023-03-16T14:07:51.430Z,17.17
2023-03-16T14:10:21.078Z,17.51
2023-03-16T14:12:53.569Z,18.05
2023-03-16T14:15:23.894Z,18.64
2023-03-16T14:17:52.444Z,18.58
2023-03-16T14:20:23.301Z,18.67
2023-03-16T14:22:52.788Z,18.90
2023-03-16T14:25:23.699Z,19.31
2023-03-16T14:28:06.233Z,19.69
2023-03-16T14:34:54.619Z,20.96
2023-03-16T14:37:23.037Z,20.87
2023-03-16T14:40:26.269Z,21.27
2023-03-16T14:42:56.190Z,21.87
2023-03-16T14:45:35.937Z,22.18
2023-03-16T14:48:07.420Z,22.30
2023-03-16T14:54:55.310Z,23.14
2023-03-16T14:57:23.293Z,23.52
2023-03-16T14:59:52.488Z,23.61
2023-03-16T15:02:27.168Z,23.64
2023-03-16T15:04:56.723Z,24.27
2023-03-16T15:07:26.834Z,24.84
2023-03-16T15:09:57.481Z,25.27
2023-03-16T15:12:26.210Z,25.81
2023-03-16T15:15:12.676Z,26.34
2023-03-16T15:17:40.850Z,26.73
2023-03-16T15:20:12.308Z,26.60
2023-03-16T15:22:40.644Z,26.79
2023-03-16T15:25:11.769Z,27.00
2023-03-16T15:27:39.638Z,27.18
2023-03-16T15:30:16.386Z,27.43
2023-03-16T15:32:44.550Z,27.70
2023-03-16T15:35:12.683Z,28.06
2023-03-16T15:37:40.804Z,27.99
2023-03-16T15:40:16.094Z,27.91
2023-03-16T15:42:46.789Z,28.15
2023-03-16T15:45:20.824Z,28.43
2023-03-16T15:47:50.219Z,28.48
2023-03-16T15:50:21.987Z,28.91
2023-03-16T15:52:53.569Z,28.75
2023-03-16T15:55:24.266Z,28.87
2023-03-16T15:57:58.756Z,29.10
2023-03-16T16:00:28.776Z,29.34
2023-03-16T16:02:57.856Z,29.49
2023-03-16T16:05:25.968Z,29.52
2023-03-16T16:07:54.879Z,29.32
2023-03-16T16:37:37.710Z,27.91
2023-03-16T16:40:37.260Z,25.07
2023-03-16T16:44:47.764Z,22.89
2023-03-16T19:09:16.928Z,5.58
2023-03-16T19:19:29.644Z,4.77
2023-03-16T19:49:21.796Z,4.13
2023-03-16T20:02:40.400Z,4.27
2023-03-16T20:05:16.727Z,4.12
2023-03-16T20:07:44.601Z,3.89
2023-03-16T20:10:22.300Z,3.75
2023-03-16T20:12:53.551Z,3.64
2023-03-16T20:15:22.588Z,3.57
2023-03-16T20:17:50.607Z,3.54
2023-03-16T20:20:29.794Z,3.47
2023-03-16T20:22:59.678Z,3.39
2023-03-16T20:25:32.374Z,3.32
2023-03-16T20:28:02.147Z,3.26
2023-03-16T20:30:30.834Z,3.21
2023-03-16T20:32:58.782Z,3.16
2023-03-16T20:35:31.223Z,3.11
2023-03-16T20:37:59.271Z,3.07
2023-03-16T20:40:27.060Z,2.99
2023-03-16T20:42:55.019Z,2.95
2023-03-16T20:45:27.177Z,2.91
2023-03-16T20:47:55.034Z,2.92
2023-03-16T20:50:29.282Z,2.93
2023-03-16T20:52:57.497Z,2.93
2023-03-16T20:55:27.238Z,2.99
2023-03-16T20:57:56.464Z,3.02
2023-03-16T21:00:34.695Z,3.01
2023-03-16T21:03:05.166Z,3.03
2023-03-16T21:05:33.831Z,3.08
2023-03-16T21:08:01.612Z,3.10
2023-03-16T21:10:30.900Z,3.13
2023-03-16T21:12:59.042Z,3.12
2023-03-16T21:15:30.342Z,3.06
2023-03-16T21:18:00.809Z,3.03
2023-03-16T21:20:32.118Z,3.03
2023-03-16T21:23:00.807Z,3.03
2023-03-16T21:25:30.960Z,3.01
2023-03-16T21:28:02.284Z,3.01
2023-03-16T21:30:32.069Z,3.05
2023-03-16T21:33:01.919Z,3.12
2023-03-16T21:35:35.902Z,3.19
2023-03-16T21:38:18.259Z,3.27
2023-03-16T21:40:47.128Z,3.31
2023-03-16T21:43:15.706Z,3.33
2023-03-16T21:45:44.320Z,3.30
2023-03-16T21:48:20.212Z,3.29
2023-03-16T21:50:48.544Z,3.29
2023-03-16T21:53:34.314Z,3.25
2023-03-16T21:56:02.041Z,3.18
2023-03-16T21:58:29.775Z,3.14
2023-03-16T22:00:58.504Z,3.15
2023-03-16T22:03:47.950Z,3.17
2023-03-16T22:06:18.169Z,3.18
2023-03-16T22:08:46.496Z,3.17
2023-03-16T22:11:17.325Z,3.17
2023-03-16T22:13:46.499Z,3.16
2023-03-16T22:16:17.151Z,3.13
2023-03-16T22:18:47.032Z,3.09
2023-03-16T22:21:25.612Z,3.04
2023-03-16T22:23:54.339Z,3.03
2023-03-16T22:26:23.489Z,3.07
2023-03-16T22:28:52.398Z,3.04
2023-03-16T22:31:27.694Z,2.99
2023-03-16T22:33:55.678Z,2.90
2023-03-16T22:36:23.663Z,2.86
2023-03-16T22:39:00.244Z,2.86
2023-03-16T22:41:29.720Z,2.89
2023-03-16T22:43:58.284Z,2.93
2023-03-16T22:46:27.693Z,2.98
2023-03-16T22:48:56.568Z,3.02
2023-03-16T22:51:33.466Z,3.05
2023-03-16T22:54:15.464Z,3.03
2023-03-16T22:56:44.745Z,2.99
2023-03-16T22:59:19.110Z,3.00
2023-03-16T23:01:48.744Z,2.99
2023-03-16T23:04:20.042Z,2.98
2023-03-16T23:06:52.887Z,2.98
2023-03-16T23:09:21.940Z,2.97
2023-03-16T23:11:53.912Z,2.97
2023-03-16T23:14:23.273Z,2.90
2023-03-16T23:16:52.673Z,2.83
2023-03-16T23:19:32.401Z,2.77
2023-03-16T23:22:03.531Z,2.78
2023-03-16T23:24:35.125Z,2.77
2023-03-16T23:27:04.562Z,2.74
2023-03-16T23:29:35.417Z,2.72
2023-03-16T23:32:04.451Z,2.75
2023-03-16T23:34:32.202Z,2.79
2023-03-16T23:36:59.937Z,2.81
2023-03-16T23:39:28.800Z,2.82
2023-03-16T23:41:57.465Z,2.86
2023-03-16T23:44:27.634Z,2.87
2023-03-16T23:46:55.550Z,2.86
2023-03-16T23:49:33.551Z,2.89
2023-03-16T23:52:28.244Z,2.90
2023-03-16T23:54:58.385Z,2.87
2023-03-16T23:57:27.899Z,2.85
2023-03-16T23:59:57.073Z,2.84
